Plaza Tower, Tennessee
Current Conditions -  °F | °C
As of 6:53 AM on Thursday 29 Jan 2015 (Local Time) from KTYS Reporting Station
Broken Clouds Broken Clouds  
Wind Chill: 28°   Ceiling: 25000
Heat Index: 28°   Visibility: 10mi
Dew Point: 23°   Wind: 3mph
Humidity: 81%   Direction: 320°NW
Pressure: 30.19"   Gusts: NA
Location:  35.9605°N, 83.9208°W
Report Text: KTYS 291153Z 32003KT 10SM FEW130 BKN250 M02/M05 A3019 RMK AO2 SLP228 T10221050 11011 21028 56008
Loading
Personal Weather Stations






























Interactive Weather Map New forecast layout! Learn more

10-Day Weather Forecast

Advertisements
Track Severe Weather on mobile